createdAt,value
2019-03-28T11:27:27.037Z,103058.67
2019-03-28T11:29:55.286Z,103053.58
2019-03-28T11:32:22.455Z,103055.18
2019-03-28T11:34:49.576Z,103055.48
2019-03-28T11:37:25.999Z,103057.45
2019-03-28T11:39:46.655Z,103063.96
2019-03-28T11:42:14.889Z,103058.36
2019-03-28T11:44:42.226Z,103062.83
2019-03-28T11:47:09.369Z,103062.09
2019-03-28T11:49:37.157Z,103064.70
2019-03-28T11:52:04.300Z,103053.36
2019-03-28T11:54:31.972Z,103055.98
2019-03-28T11:56:59.197Z,103056.35
2019-03-28T11:59:26.312Z,103061.81
2019-03-28T12:01:59.785Z,103058.41
2019-03-28T12:04:22.510Z,103059.21
2019-03-28T12:06:50.647Z,103065.30
2019-03-28T12:09:17.809Z,103061.52
2019-03-28T12:11:44.936Z,103052.75
2019-03-28T12:14:12.277Z,103046.42
2019-03-28T12:16:39.504Z,103047.16
2019-03-28T12:19:07.582Z,103051.66
2019-03-28T12:21:34.840Z,103046.11
2019-03-28T12:24:02.132Z,103053.44
2019-03-28T12:26:29.284Z,103049.36
2019-03-28T12:28:57.656Z,103052.38
2019-03-28T12:31:25.159Z,103048.95
2019-03-28T12:33:52.371Z,103048.89
2019-03-28T12:36:19.672Z,103044.18
2019-03-28T12:38:47.020Z,103050.02
2019-03-28T12:41:14.148Z,103046.02
2019-03-28T12:43:42.001Z,103043.53
2019-03-28T12:46:09.956Z,103046.86
2019-03-28T12:48:37.489Z,103044.32
2019-03-28T12:51:04.625Z,103038.95
2019-03-28T12:53:31.865Z,103028.70
2019-03-28T12:55:58.966Z,103034.49
2019-03-28T12:58:26.616Z,103027.97
2019-03-28T13:00:53.758Z,103024.04
2019-03-28T13:03:20.892Z,103036.02
2019-03-28T13:05:49.030Z,103032.77
2019-03-28T13:08:16.139Z,103035.80
2019-03-28T13:10:43.326Z,103038.62
2019-03-28T13:13:10.880Z,103038.44
2019-03-28T13:15:38.209Z,103034.19
2019-03-28T13:18:05.322Z,103039.03
2019-03-28T13:20:32.559Z,103035.06
2019-03-28T13:22:59.707Z,103034.02
2019-03-28T13:25:27.314Z,103034.22
2019-03-28T13:27:54.542Z,103036.66
2019-03-28T13:30:23.771Z,103033.91
2019-03-28T13:32:51.616Z,103041.34
2019-03-28T13:35:19.066Z,103036.73
2019-03-28T13:37:46.309Z,103039.08
2019-03-28T13:40:13.833Z,103036.21
2019-03-28T13:42:41.000Z,103031.66
2019-03-28T13:45:10.956Z,103038.95
2019-03-28T13:47:38.127Z,103040.41
2019-03-28T13:50:06.459Z,103040.61
2019-03-28T13:52:33.665Z,103048.45
2019-03-28T13:55:01.008Z,103055.14
2019-03-28T13:57:28.412Z,103051.81
2019-03-28T13:59:56.308Z,103053.31
2019-03-28T14:02:23.511Z,103045.73
2019-03-28T14:04:50.624Z,103049.92
2019-03-28T14:07:17.804Z,103043.48
2019-03-28T14:09:45.203Z,103038.67
2019-03-28T14:12:12.488Z,103037.84
2019-03-28T14:14:40.150Z,103041.62
2019-03-28T14:17:07.409Z,103040.23
2019-03-28T14:19:35.492Z,103039.52
2019-03-28T14:22:02.733Z,103038.40
2019-03-28T14:24:29.957Z,103036.94
2019-03-28T14:26:57.153Z,103027.63
2019-03-28T14:29:24.435Z,103027.03
2019-03-28T14:31:51.556Z,103026.98
2019-03-28T14:34:18.691Z,103031.98
2019-03-28T14:36:45.915Z,103029.48
2019-03-28T14:39:13.042Z,103033.57
2019-03-28T14:41:40.188Z,103037.82
2019-03-28T14:44:07.421Z,103039.98
2019-03-28T14:46:35.776Z,103035.75
2019-03-28T14:49:03.181Z,103034.55
2019-03-28T14:51:30.729Z,103033.55
2019-03-28T14:53:57.859Z,103032.03
2019-03-28T14:56:25.035Z,103032.86
2019-03-28T14:58:53.328Z,103035.11
2019-03-28T15:01:20.554Z,103042.12
2019-03-28T15:03:47.899Z,103035.18
2019-03-28T15:06:14.983Z,103032.43
2019-03-28T15:08:43.489Z,103036.68
2019-03-28T15:11:11.402Z,103031.35
2019-03-28T15:13:40.493Z,103033.35
2019-03-28T15:16:07.977Z,103033.72
2019-03-28T15:18:35.532Z,103036.36
2019-03-28T15:21:02.639Z,103029.80
2019-03-28T15:23:29.944Z,103031.97
2019-03-28T15:25:57.641Z,103031.02
2019-03-28T15:28:26.077Z,103026.86
2019-03-28T15:30:54.049Z,103026.72
2019-03-28T15:33:21.131Z,103022.84
2019-03-28T15:35:48.654Z,103031.14
2019-03-28T15:38:15.911Z,103028.44
2019-03-28T15:40:43.232Z,103018.02
2019-03-28T15:43:11.625Z,103021.50
2019-03-28T15:45:38.978Z,103021.14
2019-03-28T15:48:06.801Z,103020.67
2019-03-28T15:50:34.045Z,103022.95
2019-03-28T15:53:01.279Z,103015.99
2019-03-28T15:55:28.419Z,103016.94
2019-03-28T15:57:56.137Z,103018.86
2019-03-28T16:00:23.365Z,103016.41
2019-03-28T16:02:50.814Z,103021.44
2019-03-28T16:05:18.201Z,103025.80
2019-03-28T16:07:47.719Z,103022.53
2019-03-28T16:10:15.337Z,103031.22
2019-03-28T16:12:43.678Z,103023.98
2019-03-28T16:15:11.259Z,103028.89
2019-03-28T16:17:38.709Z,103030.05
2019-03-28T16:20:06.188Z,103026.58
2019-03-28T16:22:33.627Z,103031.70
2019-03-28T16:25:00.713Z,103031.80
2019-03-28T16:27:28.156Z,103024.27
2019-03-28T16:29:55.403Z,103023.94
2019-03-28T16:32:22.500Z,103028.55
2019-03-28T16:34:50.728Z,103032.78
2019-03-28T16:37:18.106Z,103033.61
2019-03-28T16:39:45.839Z,103035.95
2019-03-28T16:42:13.037Z,103036.63
2019-03-28T16:44:40.206Z,103039.38
2019-03-28T16:47:07.579Z,103040.25
2019-03-28T16:49:35.195Z,103043.45
2019-03-28T16:52:02.616Z,103035.24
2019-03-28T16:54:29.722Z,103041.09
2019-03-28T16:56:56.890Z,103038.77
2019-03-28T16:59:24.189Z,103037.80
2019-03-28T17:01:51.358Z,103042.81
2019-03-28T17:04:20.956Z,103044.70
2019-03-28T17:06:48.702Z,103049.25
2019-03-28T17:09:16.032Z,103049.94
2019-03-28T17:11:43.215Z,103053.84
2019-03-28T17:14:11.801Z,103056.03
2019-03-28T17:16:38.928Z,103061.06
2019-03-28T17:19:06.194Z,103059.17
2019-03-28T17:21:34.267Z,103063.41
2019-03-28T17:24:01.561Z,103068.03
2019-03-28T17:26:28.921Z,103066.31
2019-03-28T17:28:57.092Z,103064.76
2019-03-28T17:31:24.279Z,103066.02
2019-03-28T17:33:51.750Z,103066.23
2019-03-28T17:36:19.346Z,103067.37
2019-03-28T17:38:47.190Z,103070.81
2019-03-28T17:41:15.601Z,103072.83
2019-03-28T17:43:43.240Z,103066.77
2019-03-28T17:46:12.293Z,103071.22
2019-03-28T17:48:39.516Z,103078.33
2019-03-28T17:51:07.423Z,103073.08
2019-03-28T17:53:35.513Z,103074.92
2019-03-28T17:56:03.138Z,103075.50
2019-03-28T17:58:31.668Z,103070.70
2019-03-28T18:01:00.014Z,103070.28
2019-03-28T18:03:31.383Z,103069.84
2019-03-28T18:05:58.276Z,103074.73
2019-03-28T18:08:26.184Z,103078.38
2019-03-28T18:10:53.563Z,103084.41
2019-03-28T18:13:20.905Z,103082.19
2019-03-28T18:15:48.033Z,103089.63
2019-03-28T18:18:15.324Z,103094.31
2019-03-28T18:20:42.854Z,103087.17
2019-03-28T18:23:10.470Z,103097.59
2019-03-28T18:25:37.804Z,103093.09
2019-03-28T18:28:05.377Z,103095.59
2019-03-28T18:30:32.807Z,103092.52
2019-03-28T18:33:00.146Z,103103.08
2019-03-28T18:35:27.593Z,103103.22
2019-03-28T18:37:54.731Z,103107.37
2019-03-28T18:40:23.072Z,103101.46
2019-03-28T18:42:50.402Z,103105.88
2019-03-28T18:45:17.731Z,103099.66
2019-03-28T18:47:45.941Z,103106.62
2019-03-28T18:50:14.320Z,103105.11
2019-03-28T18:52:41.543Z,103101.19
2019-03-28T18:55:08.989Z,103101.53
2019-03-28T18:57:36.396Z,103103.09
2019-03-28T19:00:04.585Z,103103.56
2019-03-28T19:02:31.733Z,103098.79
2019-03-28T19:04:58.922Z,103101.26
2019-03-28T19:07:26.031Z,103102.50
2019-03-28T19:09:53.180Z,103100.91
2019-03-28T19:12:21.126Z,103104.66
2019-03-28T19:14:49.036Z,103097.13
2019-03-28T19:17:16.380Z,103098.55
2019-03-28T19:19:43.807Z,103093.73
2019-03-28T19:22:11.228Z,103094.83
2019-03-28T19:24:38.607Z,103091.69
2019-03-28T19:27:05.896Z,103091.27
2019-03-28T19:29:33.525Z,103091.27
2019-03-28T19:32:01.074Z,103100.34
2019-03-28T19:34:28.273Z,103094.05
2019-03-28T19:36:55.933Z,103086.48
2019-03-28T19:39:28.786Z,103093.81
2019-03-28T19:41:56.017Z,103081.97
2019-03-28T19:44:25.804Z,103091.16
2019-03-28T19:46:52.443Z,103102.00
2019-03-28T19:49:19.639Z,103108.25
2019-03-28T19:51:47.790Z,103103.70
2019-03-28T19:54:15.200Z,103105.93
2019-03-28T19:56:42.384Z,103100.83
2019-03-28T19:59:09.597Z,103101.39
2019-03-28T20:01:37.061Z,103108.81
2019-03-28T20:04:04.263Z,103102.78
2019-03-28T20:06:31.635Z,103101.03
2019-03-28T20:08:58.723Z,103102.92
2019-03-28T20:11:26.029Z,103105.50
2019-03-28T20:13:53.358Z,103099.09
2019-03-28T20:16:20.491Z,103111.50
2019-03-28T20:18:47.667Z,103107.70
2019-03-28T20:21:15.191Z,103110.20
2019-03-28T20:23:42.326Z,103113.89
2019-03-28T20:26:09.668Z,103117.50
2019-03-28T20:28:36.903Z,103117.56
2019-03-28T20:31:04.341Z,103123.26
2019-03-28T20:33:31.683Z,103129.09
2019-03-28T20:36:18.561Z,103124.50
2019-03-28T20:38:27.845Z,103131.91
2019-03-28T20:40:58.253Z,103136.12
2019-03-28T20:43:23.932Z,103135.08
2019-03-28T20:45:55.271Z,103135.99
2019-03-28T20:48:23.264Z,103139.07
2019-03-28T20:50:50.824Z,103138.25
2019-03-28T20:53:18.096Z,103137.30
2019-03-28T20:55:45.850Z,103137.77
2019-03-28T20:58:14.150Z,103139.56
2019-03-28T21:00:43.792Z,103147.64
2019-03-28T21:03:11.528Z,103141.91
2019-03-28T21:05:40.212Z,103140.62
2019-03-28T21:08:07.909Z,103151.80
2019-03-28T21:10:35.647Z,103150.45
2019-03-28T21:13:03.140Z,103151.31
2019-03-28T21:15:31.407Z,103152.31
2019-03-28T21:17:58.780Z,103151.86
2019-03-28T21:20:25.982Z,103148.23
2019-03-28T21:22:53.402Z,103149.75
2019-03-28T21:25:20.618Z,103148.16
2019-03-28T21:27:49.491Z,103152.77
2019-03-28T21:30:18.424Z,103150.03
2019-03-28T21:32:55.257Z,103155.13
2019-03-28T21:35:16.924Z,103148.89
2019-03-28T21:37:44.127Z,103159.94
2019-03-28T21:40:11.460Z,103157.25
2019-03-28T21:42:39.081Z,103154.55
2019-03-28T21:45:06.273Z,103148.89
2019-03-28T21:47:34.667Z,103151.40
2019-03-28T21:50:02.953Z,103152.31
2019-03-28T21:52:31.408Z,103152.46
2019-03-28T21:54:59.616Z,103149.44
2019-03-28T21:57:26.732Z,103147.73
2019-03-28T21:59:54.685Z,103150.23
2019-03-28T22:02:22.161Z,103150.32
2019-03-28T22:04:50.017Z,103145.02
2019-03-28T22:07:17.600Z,103150.61
2019-03-28T22:09:45.937Z,103151.45
2019-03-28T22:12:14.235Z,103147.55
2019-03-28T22:14:41.629Z,103139.66
2019-03-28T22:17:08.812Z,103136.54
2019-03-28T22:19:36.157Z,103130.72
2019-03-28T22:22:03.296Z,103130.80
2019-03-28T22:24:30.672Z,103129.55
2019-03-28T22:26:58.476Z,103129.92
2019-03-28T22:29:25.663Z,103127.72
2019-03-28T22:31:53.028Z,103126.92
2019-03-28T22:34:20.156Z,103131.80
2019-03-28T22:36:57.275Z,103125.05
2019-03-28T22:39:16.795Z,103120.02
2019-03-28T22:41:44.637Z,103114.70
2019-03-28T22:44:14.315Z,103116.64
2019-03-28T22:46:41.541Z,103113.91
2019-03-28T22:49:08.828Z,103111.64
2019-03-28T22:51:36.241Z,103107.28
2019-03-28T22:54:03.355Z,103103.72
2019-03-28T22:56:31.290Z,103103.09
2019-03-28T22:58:58.743Z,103100.24
2019-03-28T23:01:26.116Z,103104.69
2019-03-28T23:03:55.487Z,103110.14
2019-03-28T23:06:23.954Z,103112.34
2019-03-28T23:08:51.711Z,103115.33
2019-03-28T23:11:18.985Z,103111.39
2019-03-28T23:13:46.210Z,103114.08
2019-03-28T23:16:13.467Z,103119.09
2019-03-28T23:18:40.640Z,103112.73
2019-03-28T23:21:08.591Z,103102.63
2019-03-28T23:23:36.030Z,103102.20
2019-03-28T23:26:03.375Z,103096.81
2019-03-28T23:28:30.535Z,103100.87
2019-03-28T23:30:58.662Z,103095.41
2019-03-28T23:33:25.953Z,103090.39
2019-03-28T23:35:54.356Z,103092.16
2019-03-28T23:38:21.510Z,103093.67
2019-03-28T23:40:48.813Z,103092.27
2019-03-28T23:43:16.268Z,103099.61
2019-03-28T23:45:46.512Z,103093.73
2019-03-28T23:48:15.010Z,103088.54
2019-03-28T23:50:42.148Z,103089.68
2019-03-28T23:53:09.707Z,103091.53
2019-03-28T23:55:37.003Z,103087.16
2019-03-28T23:58:04.154Z,103087.97
